Time;durP1;ratioP1;P1;durP2;ratioP2;P2;SDS_P1;SDS_P2;PMS_P1;PMS_P2;Temp;Humidity;BMP_temperature;BMP_pressure;BME280_temperature;BME280_humidity;BME280_pressure;Samples;Min_cycle;Max_cycle;Signal;HPM_P1;HPM_P2
2023/01/23 00:01:40;;;;;;;25.05;11.15;;;;;;;2.69;100.00;102327.75;5002794;28;20030;-78
2023/01/23 00:04:05;;;;;;;25.00;9.55;;;;;;;2.71;100.00;102327.03;4998784;28;20404;-78
2023/01/23 00:06:31;;;;;;;23.55;9.68;;;;;;;2.68;100.00;102331.19;5002164;28;20041;-78
2023/01/23 00:08:57;;;;;;;24.30;11.13;;;;;;;2.71;100.00;102327.03;5002223;28;20044;-78
2023/01/23 00:11:28;;;;;;;28.45;12.45;;;;;;;2.63;100.00;102321.41;4999193;28;20038;-79
2023/01/23 00:13:55;;;;;;;23.83;10.88;;;;;;;2.71;100.00;102326.16;4999049;28;20042;-78
2023/01/23 00:16:23;;;;;;;26.23;10.43;;;;;;;2.80;100.00;102321.41;4978897;28;20553;-78
2023/01/23 00:18:49;;;;;;;24.30;10.90;;;;;;;2.78;100.00;102323.06;5000679;28;20040;-77
2023/01/23 00:21:17;;;;;;;25.00;10.30;;;;;;;2.74;100.00;102319.38;5003270;28;20452;-78
2023/01/23 00:23:48;;;;;;;24.25;10.98;;;;;;;2.73;100.00;102320.19;5000765;28;20043;-78
2023/01/23 00:26:16;;;;;;;24.80;11.73;;;;;;;2.74;100.00;102318.47;5002448;28;20117;-78
2023/01/23 00:28:44;;;;;;;24.00;10.60;;;;;;;2.75;100.00;102315.97;5000513;28;20076;-78
2023/01/23 00:31:18;;;;;;;28.27;11.20;;;;;;;2.71;100.00;102310.50;4999815;28;20092;-78
2023/01/23 00:33:45;;;;;;;27.58;11.63;;;;;;;2.69;100.00;102313.00;4979429;28;20125;-78
2023/01/23 00:36:12;;;;;;;29.15;11.85;;;;;;;2.72;100.00;102312.28;5001976;28;20080;-78
2023/01/23 00:38:38;;;;;;;30.15;12.95;;;;;;;2.66;100.00;102318.06;4983978;28;20039;-78
2023/01/23 00:41:04;;;;;;;27.40;11.75;;;;;;;2.65;100.00;102326.72;4986900;28;20045;-78
2023/01/23 00:43:31;;;;;;;25.60;12.10;;;;;;;2.67;100.00;102329.38;4998711;28;20050;-78
2023/01/23 00:45:56;;;;;;;28.90;12.15;;;;;;;2.63;100.00;102329.22;5003324;28;20033;-78
2023/01/23 00:48:22;;;;;;;31.50;12.95;;;;;;;2.66;100.00;102332.81;4987019;28;20366;-78
2023/01/23 00:50:47;;;;;;;28.52;11.45;;;;;;;2.66;100.00;102332.81;5005752;28;20112;-78
2023/01/23 00:53:13;;;;;;;24.10;11.80;;;;;;;2.66;100.00;102332.81;4988312;28;20620;-78
2023/01/23 00:55:39;;;;;;;27.85;11.75;;;;;;;2.71;100.00;102341.78;5004015;28;20511;-78
2023/01/23 00:58:04;;;;;;;27.70;11.13;;;;;;;2.80;100.00;102339.66;4989254;28;20049;-78
2023/01/23 01:00:30;;;;;;;26.35;11.10;;;;;;;2.80;100.00;102342.28;5001835;28;20490;-78
2023/01/23 01:02:55;;;;;;;26.95;12.23;;;;;;;2.81;100.00;102337.16;4995323;28;20046;-78
2023/01/23 01:05:21;;;;;;;28.77;12.52;;;;;;;2.77;100.00;102343.00;5004113;28;20034;-78
2023/01/23 01:07:46;;;;;;;22.48;9.55;;;;;;;2.72;100.00;102346.16;4987930;28;20086;-78
2023/01/23 01:10:13;;;;;;;25.10;9.85;;;;;;;2.73;100.00;102345.38;4990370;28;20129;-78
2023/01/23 01:12:39;;;;;;;22.58;9.02;;;;;;;2.73;100.00;102342.78;5003539;28;20125;-78
2023/01/23 01:15:05;;;;;;;30.25;10.98;;;;;;;2.73;100.00;102348.00;5005980;28;20165;-79
2023/01/23 01:17:31;;;;;;;31.50;10.23;;;;;;;2.75;100.00;102357.69;4998576;28;20034;-78
2023/01/23 01:19:56;;;;;;;27.35;9.32;;;;;;;2.74;100.00;102347.16;5003173;28;20192;-78
2023/01/23 01:22:21;;;;;;;25.15;10.27;;;;;;;2.70;100.00;102353.00;5004239;28;20038;-77
2023/01/23 01:24:47;;;;;;;26.58;10.25;;;;;;;2.66;100.00;102354.56;5002810;28;20026;-78
2023/01/23 01:27:12;;;;;;;29.05;10.40;;;;;;;2.71;100.00;102354.81;5004419;28;20049;-78
2023/01/23 01:29:38;;;;;;;26.08;10.07;;;;;;;2.78;100.00;102354.34;5000992;28;20049;-77
2023/01/23 01:32:04;;;;;;;27.02;10.55;;;;;;;2.74;100.00;102349.78;4981531;28;20042;-78
2023/01/23 01:34:29;;;;;;;27.92;9.88;;;;;;;2.76;100.00;102355.97;5003038;28;20026;-78
2023/01/23 01:36:55;;;;;;;29.00;10.32;;;;;;;2.82;100.00;102353.69;5004402;28;20045;-79
2023/01/23 01:39:20;;;;;;;22.88;8.93;;;;;;;2.86;100.00;102368.69;5002780;28;20050;-79
2023/01/23 01:41:45;;;;;;;28.15;10.15;;;;;;;2.85;100.00;102369.50;5002691;28;20554;-78
2023/01/23 01:44:19;;;;;;;20.88;9.07;;;;;;;2.91;100.00;102377.69;5002720;28;20038;-78
2023/01/23 01:46:45;;;;;;;26.25;9.63;;;;;;;2.96;100.00;102384.03;5000122;28;20117;-78
2023/01/23 01:49:19;;;;;;;25.67;9.40;;;;;;;2.98;100.00;102385.00;5004075;28;20130;-78
2023/01/23 01:51:44;;;;;;;24.67;9.40;;;;;;;2.99;100.00;102384.19;5001303;28;20118;-78
2023/01/23 01:54:35;;;;;;;24.77;9.52;;;;;;;3.01;100.00;102385.19;4998073;28;20121;-78
2023/01/23 01:57:13;;;;;;;25.50;10.50;;;;;;;2.99;100.00;102388.53;4997268;28;20081;-78
2023/01/23 01:59:45;;;;;;;26.80;10.10;;;;;;;2.89;100.00;102394.06;4978714;28;20389;-78
2023/01/23 02:02:16;;;;;;;28.70;10.18;;;;;;;2.88;100.00;102395.72;5002030;28;20031;-78
2023/01/23 02:04:46;;;;;;;28.60;10.27;;;;;;;2.90;100.00;102401.06;5001269;28;20038;-77
2023/01/23 02:07:21;;;;;;;27.52;9.77;;;;;;;2.92;100.00;102400.31;5000889;28;20050;-78
2023/01/23 02:09:48;;;;;;;28.27;9.63;;;;;;;2.98;100.00;102403.25;4981680;28;20031;-79
2023/01/23 02:12:13;;;;;;;28.33;10.63;;;;;;;2.87;100.00;102401.78;5003086;28;20034;-78
2023/01/23 02:14:40;;;;;;;27.73;9.85;;;;;;;2.85;100.00;102398.19;5001907;28;20037;-79
2023/01/23 02:17:05;;;;;;;25.95;10.80;;;;;;;2.87;100.00;102400.88;5004126;28;20439;-79
2023/01/23 02:19:46;;;;;;;27.38;10.15;;;;;;;2.90;100.00;102396.72;5000453;28;20030;-78
2023/01/23 02:22:45;;;;;;;34.05;11.55;;;;;;;2.87;100.00;102396.56;4990047;28;20026;-78
2023/01/23 02:25:27;;;;;;;22.25;9.50;;;;;;;2.89;100.00;102394.94;4997644;28;20276;-78
2023/01/23 02:27:52;;;;;;;25.15;9.73;;;;;;;2.88;100.00;102403.56;4984804;28;20088;-78
2023/01/23 02:30:19;;;;;;;25.95;10.18;;;;;;;2.84;100.00;102397.28;5004208;28;20030;-78
2023/01/23 02:32:45;;;;;;;26.17;10.00;;;;;;;2.75;100.00;102398.47;5000315;28;20030;-78
2023/01/23 02:35:18;;;;;;;28.77;10.27;;;;;;;2.72;100.00;102396.59;5003092;28;20065;-78
2023/01/23 02:37:46;;;;;;;29.58;10.38;;;;;;;2.74;100.00;102405.41;5004099;28;20061;-78
2023/01/23 02:40:12;;;;;;;30.88;11.10;;;;;;;2.73;100.00;102397.53;4999839;28;20042;-78
2023/01/23 02:42:43;;;;;;;31.67;10.68;;;;;;;2.71;100.00;102402.63;4984174;28;20066;-78
2023/01/23 02:45:11;;;;;;;32.13;11.23;;;;;;;2.67;100.00;102404.97;5002635;28;20034;-78
2023/01/23 02:47:37;;;;;;;23.50;10.52;;;;;;;2.63;100.00;102406.53;5000389;28;20042;-77
2023/01/23 02:50:02;;;;;;;28.02;10.43;;;;;;;2.64;100.00;102411.81;4981847;28;20046;-78
2023/01/23 02:52:28;;;;;;;33.88;11.68;;;;;;;2.62;100.00;102410.84;5004410;28;20077;-78
2023/01/23 02:54:54;;;;;;;30.40;11.82;;;;;;;2.61;100.00;102418.56;5001273;28;20045;-78
2023/01/23 02:57:19;;;;;;;30.73;10.82;;;;;;;2.62;100.00;102423.00;5002823;28;20675;-78
2023/01/23 03:02:33;;;;;;;31.13;12.15;;;;;;;2.69;100.00;102437.25;4985870;28;20045;-77
2023/01/23 03:04:58;;;;;;;31.88;11.57;;;;;;;2.75;100.00;102434.97;5001087;28;20527;-78
2023/01/23 03:07:26;;;;;;;29.42;10.43;;;;;;;2.80;100.00;102430.94;4983436;28;20039;-78
2023/01/23 03:09:51;;;;;;;30.48;11.98;;;;;;;2.83;100.00;102436.34;4982461;28;20038;-78
2023/01/23 03:12:17;;;;;;;37.35;11.15;;;;;;;2.84;100.00;102438.13;5001540;28;20081;-78
2023/01/23 03:14:42;;;;;;;29.63;10.75;;;;;;;2.79;100.00;102434.34;5001491;28;20026;-78
2023/01/23 03:17:09;;;;;;;37.40;10.63;;;;;;;2.78;100.00;102437.78;5000886;28;20448;-78
2023/01/23 03:19:35;;;;;;;34.03;10.07;;;;;;;2.83;100.00;102436.34;4986118;28;20037;-78
2023/01/23 03:22:01;;;;;;;37.20;13.18;;;;;;;2.77;100.00;102444.69;4999962;28;20030;-78
2023/01/23 03:24:26;;;;;;;35.85;13.15;;;;;;;2.81;100.00;102444.06;4979645;28;20494;-78
2023/01/23 03:26:51;;;;;;;37.95;13.85;;;;;;;2.77;100.00;102436.88;4983934;28;20116;-78
2023/01/23 03:32:10;;;;;;;36.53;11.25;;;;;;;2.79;100.00;102442.19;4999743;28;20654;-78
2023/01/23 03:34:36;;;;;;;33.58;11.95;;;;;;;2.75;100.00;102430.69;5000345;28;20647;-78
2023/01/23 03:37:03;;;;;;;31.60;11.15;;;;;;;2.70;100.00;102432.16;5003139;28;20041;-78
2023/01/23 03:42:17;;;;;;;33.85;10.77;;;;;;;2.63;100.00;102430.88;4998837;28;20029;-78
2023/01/23 03:44:43;;;;;;;33.25;11.88;;;;;;;2.59;100.00;102428.94;4998865;28;20032;-78
2023/01/23 03:47:09;;;;;;;29.75;10.63;;;;;;;2.59;100.00;102425.41;5001094;28;20037;-79
2023/01/23 03:49:37;;;;;;;31.45;11.73;;;;;;;2.58;100.00;102428.84;4985785;28;20040;-78
2023/01/23 03:52:03;;;;;;;32.60;11.77;;;;;;;2.56;100.00;102426.13;4998441;28;20042;-77
2023/01/23 03:54:29;;;;;;;33.80;11.05;;;;;;;2.55;100.00;102429.56;4979960;28;20027;-77
2023/01/23 03:56:55;;;;;;;35.88;12.82;;;;;;;2.56;100.00;102426.13;5002378;28;20030;-78
2023/01/23 03:59:43;;;;;;;39.65;12.60;;;;;;;2.52;100.00;102433.72;5002965;28;20042;-78
2023/01/23 04:02:09;;;;;;;36.33;11.45;;;;;;;2.57;100.00;102434.88;4983076;28;20089;-78
2023/01/23 04:04:35;;;;;;;29.90;11.60;;;;;;;2.54;100.00;102433.00;4984256;28;20022;-78
2023/01/23 04:07:03;;;;;;;25.75;10.90;;;;;;;2.59;100.00;102428.94;5004487;28;20030;-78
2023/01/23 04:09:30;;;;;;;32.22;11.27;;;;;;;2.62;100.00;102433.44;4999269;28;20034;-78
2023/01/23 04:11:57;;;;;;;31.27;12.23;;;;;;;2.69;100.00;102434.66;4979195;28;20469;-78
2023/01/23 04:14:25;;;;;;;31.20;12.48;;;;;;;2.59;100.00;102431.53;4996258;28;20035;-78
2023/01/23 04:16:50;;;;;;;27.42;11.60;;;;;;;2.62;100.00;102433.44;5000267;28;20030;-78
2023/01/23 04:19:20;;;;;;;35.85;12.35;;;;;;;2.61;100.00;102431.63;4969239;28;20057;-77
2023/01/23 04:21:47;;;;;;;31.60;11.40;;;;;;;2.62;100.00;102436.94;5000570;28;20030;-78
2023/01/23 04:24:13;;;;;;;35.08;12.63;;;;;;;2.58;100.00;102434.94;5005925;28;20042;-78
2023/01/23 04:26:39;;;;;;;35.13;11.90;;;;;;;2.58;100.00;102440.16;4984451;28;20045;-77
2023/01/23 04:29:05;;;;;;;37.72;13.45;;;;;;;2.58;100.00;102447.09;5008622;28;20026;-78
2023/01/23 04:31:31;;;;;;;27.42;10.77;;;;;;;2.57;100.00;102451.41;4990173;28;20038;-77
2023/01/23 04:33:57;;;;;;;30.73;11.23;;;;;;;2.62;100.00;102452.56;4989761;28;20026;-78
2023/01/23 04:36:22;;;;;;;34.65;12.88;;;;;;;2.63;100.00;102448.25;5000287;28;20054;-78
2023/01/23 04:38:48;;;;;;;35.90;11.95;;;;;;;2.61;100.00;102455.97;5008986;28;20428;-78
2023/01/23 04:41:25;;;;;;;34.22;12.02;;;;;;;2.70;100.00;102471.25;5004537;28;20031;-75
2023/01/23 04:46:45;;;;;;;32.88;12.07;;;;;;;2.70;100.00;102466.03;5000113;28;20497;-76
2023/01/23 04:49:13;;;;;;;30.40;11.25;;;;;;;2.57;100.00;102459.22;4984373;28;20062;-76
2023/01/23 04:51:39;;;;;;;29.63;12.15;;;;;;;2.52;100.00;102465.88;5001296;28;20030;-76
2023/01/23 04:54:05;;;;;;;30.80;12.35;;;;;;;2.47;100.00;102464.72;4988608;28;20034;-76
2023/01/23 04:56:31;;;;;;;32.17;12.73;;;;;;;2.42;100.00;102468.75;5001138;28;20045;-76
2023/01/23 04:58:59;;;;;;;25.30;8.82;;;;;;;2.45;100.00;102476.75;5004160;28;20500;-76
2023/01/23 05:01:24;;;;;;;27.80;11.25;;;;;;;2.51;100.00;102471.00;4988627;28;20037;-75
2023/01/23 05:03:55;;;;;;;27.05;9.82;;;;;;;2.56;100.00;102467.84;5003718;28;20405;-76
2023/01/23 05:06:21;;;;;;;24.92;8.73;;;;;;;2.62;100.00;102473.44;5001940;28;20034;-76
2023/01/23 05:08:46;;;;;;;24.17;9.13;;;;;;;2.67;100.00;102471.06;5005334;28;20488;-74
2023/01/23 05:11:23;;;;;;;27.17;9.85;;;;;;;2.78;100.00;102482.13;5003321;28;20034;-76
2023/01/23 05:13:48;;;;;;;27.17;8.95;;;;;;;2.83;100.00;102493.72;5004318;28;20031;-76
2023/01/23 05:16:15;;;;;;;23.63;9.90;;;;;;;2.86;100.00;102499.09;4997246;28;20113;-76
2023/01/23 05:18:59;;;;;;;22.45;10.15;;;;;;;2.91;100.00;102497.66;5001014;28;20424;-76
2023/01/23 05:21:25;;;;;;;30.60;10.75;;;;;;;2.92;100.00;102503.75;4991811;28;20033;-76
2023/01/23 05:23:51;;;;;;;27.08;10.10;;;;;;;2.96;100.00;102495.28;5000835;28;20458;-76
2023/01/23 05:26:18;;;;;;;24.42;9.52;;;;;;;2.95;100.00;102504.81;4998775;28;20049;-76
2023/01/23 05:28:45;;;;;;;31.63;12.10;;;;;;;2.92;100.00;102502.03;5013685;28;20516;-76
2023/01/23 05:31:10;;;;;;;29.52;11.70;;;;;;;2.83;100.00;102501.53;4986336;28;20485;-76
2023/01/23 05:33:41;;;;;;;28.48;11.20;;;;;;;2.82;100.00;102500.63;4994215;28;20381;-76
2023/01/23 05:36:07;;;;;;;25.42;10.45;;;;;;;2.82;100.00;102504.94;5000720;28;20049;-76
2023/01/23 05:38:32;;;;;;;32.55;11.30;;;;;;;2.77;100.00;102498.56;4986762;28;20042;-76
2023/01/23 05:40:58;;;;;;;31.15;10.98;;;;;;;2.81;100.00;102506.66;5000469;28;20038;-76
2023/01/23 05:43:32;;;;;;;28.42;11.88;;;;;;;2.75;100.00;102501.09;4997221;28;20058;-76
2023/01/23 05:46:21;;;;;;;29.88;12.02;;;;;;;2.74;100.00;102503.59;5002630;28;20034;-76
2023/01/23 05:48:51;;;;;;;26.23;10.50;;;;;;;2.78;100.00;102503.88;5000874;28;20033;-76
2023/01/23 05:51:17;;;;;;;29.30;10.98;;;;;;;2.80;100.00;102511.75;5007515;28;20436;-76
2023/01/23 05:53:43;;;;;;;29.40;11.88;;;;;;;2.82;100.00;102505.81;4999961;28;20085;-76
2023/01/23 05:56:09;;;;;;;27.77;10.52;;;;;;;2.78;100.00;102508.19;4999548;28;20401;-76
2023/01/23 05:59:02;;;;;;;36.67;12.80;;;;;;;2.79;100.00;102515.19;4991449;28;20500;-76
2023/01/23 06:01:38;;;;;;;29.83;11.25;;;;;;;2.77;100.00;102516.81;4988396;28;20034;-76
2023/01/23 06:04:22;;;;;;;40.88;14.90;;;;;;;2.69;100.00;102521.59;5001200;28;20232;-77
2023/01/23 06:07:13;;;;;;;41.38;15.50;;;;;;;2.71;100.00;102516.47;5000221;28;20081;-77
2023/01/23 06:09:39;;;;;;;33.47;12.68;;;;;;;2.71;100.00;102519.06;4997697;28;20492;-77
2023/01/23 06:12:04;;;;;;;34.42;14.60;;;;;;;2.71;100.00;102519.97;5001916;28;20125;-77
2023/01/23 06:14:30;;;;;;;35.58;15.93;;;;;;;2.80;100.00;102524.81;4983833;28;20065;-77
2023/01/23 06:16:56;;;;;;;31.13;14.05;;;;;;;2.80;100.00;102524.81;4986970;28;20069;-77
2023/01/23 06:19:21;;;;;;;33.60;14.68;;;;;;;2.83;100.00;102531.13;4998639;28;20155;-77
2023/01/23 06:21:47;;;;;;;38.63;14.23;;;;;;;2.85;100.00;102528.56;4998434;28;20080;-77
2023/01/23 06:24:13;;;;;;;38.60;13.90;;;;;;;2.78;100.00;102526.44;5001331;28;20053;-78
2023/01/23 06:26:38;;;;;;;35.13;15.48;;;;;;;2.66;100.00;102528.34;5002596;28;20042;-77
2023/01/23 06:29:04;;;;;;;34.95;13.10;;;;;;;2.64;100.00;102531.75;4996947;28;20037;-77
2023/01/23 06:31:31;;;;;;;36.58;13.57;;;;;;;2.67;100.00;102538.84;4989563;28;20037;-77
2023/01/23 06:33:59;;;;;;;36.70;14.05;;;;;;;2.70;100.00;102538.13;4981881;28;20039;-77
2023/01/23 06:36:29;;;;;;;32.63;13.45;;;;;;;2.66;100.00;102534.44;4998776;28;20042;-77
2023/01/23 06:38:55;;;;;;;34.05;13.70;;;;;;;2.63;100.00;102537.78;5005086;28;20034;-77
2023/01/23 06:41:25;;;;;;;34.60;12.63;;;;;;;2.59;100.00;102533.22;5000632;28;20386;-77
2023/01/23 06:43:53;;;;;;;33.30;14.95;;;;;;;2.61;100.00;102531.56;4979414;28;20094;-77
2023/01/23 06:46:22;;;;;;;35.90;13.35;;;;;;;2.62;100.00;102542.91;5002413;28;20085;-76
2023/01/23 06:48:48;;;;;;;30.48;13.48;;;;;;;2.61;100.00;102536.78;5003197;28;20378;-77
2023/01/23 06:51:13;;;;;;;34.20;14.98;;;;;;;2.62;100.00;102538.59;5003405;28;20109;-77
2023/01/23 06:53:41;;;;;;;35.88;15.23;;;;;;;2.62;100.00;102537.72;4980577;28;20030;-78
2023/01/23 06:56:07;;;;;;;37.05;13.77;;;;;;;2.60;100.00;102537.59;4984093;28;20036;-77
2023/01/23 06:58:37;;;;;;;38.60;15.20;;;;;;;2.52;100.00;102540.59;4999482;28;20036;-77
2023/01/23 07:01:14;;;;;;;37.85;14.57;;;;;;;2.52;100.00;102545.78;4999364;28;20621;-77
2023/01/23 07:03:58;;;;;;;39.88;15.15;;;;;;;2.46;100.00;102548.91;5000356;28;20509;-77
2023/01/23 07:06:24;;;;;;;38.38;15.93;;;;;;;2.48;100.00;102552.50;4983453;28;20026;-77
2023/01/23 07:08:49;;;;;;;41.90;14.85;;;;;;;2.50;100.00;102556.13;4987010;28;20554;-77
2023/01/23 07:11:15;;;;;;;37.45;14.60;;;;;;;2.53;100.00;102561.50;5001621;28;20512;-77
2023/01/23 07:13:41;;;;;;;36.03;14.65;;;;;;;2.53;100.00;102564.09;5001665;28;20049;-77
2023/01/23 07:16:07;;;;;;;39.95;15.52;;;;;;;2.51;100.00;102565.72;5000578;28;20416;-77
2023/01/23 07:18:32;;;;;;;38.80;15.48;;;;;;;2.50;100.00;102569.16;4986478;28;20080;-77
2023/01/23 07:20:58;;;;;;;35.25;14.27;;;;;;;2.51;100.00;102576.16;5002160;28;20095;-77
2023/01/23 07:23:23;;;;;;;30.85;11.65;;;;;;;2.51;100.00;102576.16;4995029;28;20449;-77
2023/01/23 07:25:49;;;;;;;23.42;10.00;;;;;;;2.56;100.00;102579.94;5000477;28;20555;-76
2023/01/23 07:28:14;;;;;;;31.50;11.15;;;;;;;2.58;100.00;102588.75;5000369;28;20030;-77
2023/01/23 07:30:40;;;;;;;33.20;14.55;;;;;;;2.56;100.00;102592.97;5002459;28;20116;-77
2023/01/23 07:33:05;;;;;;;34.72;12.88;;;;;;;2.55;100.00;102601.59;4983593;28;20046;-77
2023/01/23 07:35:31;;;;;;;35.58;13.15;;;;;;;2.57;100.00;102607.81;4999659;28;20034;-77
2023/01/23 07:37:56;;;;;;;31.38;12.52;;;;;;;2.64;100.00;102604.72;5005192;28;20048;-77
2023/01/23 07:40:22;;;;;;;33.00;12.23;;;;;;;2.73;100.00;102622.66;5000113;28;20034;-78
2023/01/23 07:42:48;;;;;;;29.48;12.57;;;;;;;2.80;100.00;102621.28;5000236;28;20045;-76
2023/01/23 07:45:13;;;;;;;35.33;12.30;;;;;;;2.78;100.00;102620.31;5000941;28;20029;-77
2023/01/23 07:47:39;;;;;;;28.10;10.57;;;;;;;2.82;100.00;102627.50;4988800;28;20522;-77
2023/01/23 07:50:06;;;;;;;31.77;12.18;;;;;;;2.84;100.00;102638.94;4998396;28;20401;-77
2023/01/23 07:52:31;;;;;;;29.33;10.88;;;;;;;2.87;100.00;102640.81;5001494;28;20121;-77
2023/01/23 07:54:56;;;;;;;29.70;12.35;;;;;;;2.90;100.00;102639.28;4994095;28;20113;-77
2023/01/23 07:57:22;;;;;;;31.83;11.25;;;;;;;2.93;100.00;102647.28;4999626;28;20497;-77
2023/01/23 07:59:47;;;;;;;38.53;12.85;;;;;;;3.01;100.00;102640.84;5002247;28;20429;-77
2023/01/23 08:02:12;;;;;;;30.95;11.90;;;;;;;3.07;100.00;102649.00;5001531;28;20548;-77
2023/01/23 08:04:38;;;;;;;33.08;12.57;;;;;;;3.13;100.00;102644.97;5002657;28;20423;-77
2023/01/23 08:07:04;;;;;;;29.60;11.88;;;;;;;3.17;100.00;102646.91;4999518;28;20034;-77
2023/01/23 08:09:29;;;;;;;31.88;12.80;;;;;;;3.14;100.00;102647.63;4992474;28;20040;-77
2023/01/23 08:11:54;;;;;;;27.02;11.32;;;;;;;3.19;100.00;102653.13;5000094;28;20112;-77
2023/01/23 08:14:20;;;;;;;27.00;11.70;;;;;;;3.26;100.00;102655.28;4992034;28;20122;-77
2023/01/23 08:16:49;;;;;;;24.55;9.23;;;;;;;3.25;100.00;102657.00;4999786;28;20038;-77
2023/01/23 08:19:15;;;;;;;26.63;10.95;;;;;;;3.17;100.00;102657.34;4981537;28;20052;-77
2023/01/23 08:21:41;;;;;;;26.13;11.48;;;;;;;3.19;100.00;102661.84;5002583;28;20034;-77
2023/01/23 08:24:07;;;;;;;25.30;10.50;;;;;;;3.24;100.00;102664.72;4999534;28;20042;-77
2023/01/23 08:26:33;;;;;;;25.38;9.95;;;;;;;3.29;100.00;102664.19;4998002;28;20105;-77
2023/01/23 08:28:58;;;;;;;24.08;11.95;;;;;;;3.36;100.00;102655.00;4999625;28;20030;-77
2023/01/23 08:31:24;;;;;;;26.08;9.55;;;;;;;3.40;100.00;102669.13;5005769;28;20085;-77
2023/01/23 08:33:49;;;;;;;31.23;13.05;;;;;;;3.43;100.00;102670.22;5000445;28;20100;-78
2023/01/23 08:36:14;;;;;;;29.30;12.45;;;;;;;3.46;100.00;102666.88;4998852;28;20045;-77
2023/01/23 08:38:40;;;;;;;34.25;12.45;;;;;;;3.47;100.00;102669.56;4999531;28;20045;-77
2023/01/23 08:41:05;;;;;;;36.47;14.45;;;;;;;3.59;100.00;102673.66;5001232;28;20038;-77
2023/01/23 08:43:31;;;;;;;34.88;15.68;;;;;;;3.67;100.00;102677.66;5000466;28;20069;-76
2023/01/23 08:45:58;;;;;;;40.70;16.38;;;;;;;3.69;100.00;102666.47;4999582;28;20041;-77
2023/01/23 08:48:25;;;;;;;29.40;13.38;;;;;;;3.74;100.00;102674.53;4997676;28;20038;-77
2023/01/23 08:50:56;;;;;;;23.83;9.95;;;;;;;3.81;100.00;102666.25;5001827;28;20042;-77
2023/01/23 08:53:22;;;;;;;20.48;9.65;;;;;;;3.83;100.00;102669.84;4996402;28;20030;-77
2023/01/23 08:55:47;;;;;;;17.85;7.70;;;;;;;3.81;100.00;102676.69;5000878;28;20036;-77
2023/01/23 08:58:13;;;;;;;18.65;8.40;;;;;;;3.81;100.00;102676.69;5001675;28;20038;-77
2023/01/23 09:00:38;;;;;;;23.67;9.07;;;;;;;3.78;100.00;102678.25;5001314;28;20479;-77
2023/01/23 09:03:04;;;;;;;15.85;8.07;;;;;;;3.73;100.00;102688.41;5001056;28;20038;-77
2023/01/23 09:05:30;;;;;;;19.90;9.30;;;;;;;3.78;100.00;102683.47;5002076;28;20087;-78
2023/01/23 09:07:57;;;;;;;18.23;8.75;;;;;;;3.76;100.00;102683.38;5002507;28;20045;-77
2023/01/23 09:10:23;;;;;;;21.77;9.23;;;;;;;3.74;100.00;102690.22;5004954;28;20037;-77
2023/01/23 09:12:52;;;;;;;16.35;8.05;;;;;;;3.82;100.00;102685.41;5004854;28;20062;-77
2023/01/23 09:15:18;;;;;;;19.73;10.05;;;;;;;3.87;100.00;102687.47;4991698;28;20030;-79
2023/01/23 09:17:44;;;;;;;17.50;8.40;;;;;;;3.89;100.00;102693.69;4995955;28;20375;-77
2023/01/23 09:20:09;;;;;;;15.75;6.70;;;;;;;3.90;100.00;102698.13;5002871;28;20034;-77
2023/01/23 09:22:35;;;;;;;13.80;7.72;;;;;;;3.90;100.00;102687.66;4999457;28;20062;-77
2023/01/23 09:25:00;;;;;;;19.50;9.13;;;;;;;3.88;100.00;102685.78;5003173;28;20045;-78
2023/01/23 09:27:25;;;;;;;14.30;7.28;;;;;;;4.04;100.00;102692.75;5003865;28;20405;-77
2023/01/23 09:29:51;;;;;;;16.15;6.90;;;;;;;4.04;100.00;102691.03;5001263;28;20034;-78
2023/01/23 09:32:16;;;;;;;15.20;7.68;;;;;;;4.03;100.00;102693.53;5000538;28;20094;-77
2023/01/23 09:34:42;;;;;;;15.32;7.50;;;;;;;4.07;100.00;102692.91;5004076;28;20556;-77
2023/01/23 09:37:07;;;;;;;17.52;8.38;;;;;;;4.01;100.00;102695.16;4997963;28;20117;-77
2023/01/23 09:39:33;;;;;;;17.90;6.30;;;;;;;4.12;100.00;102692.34;4999722;28;20125;-77
2023/01/23 09:42:06;;;;;;;17.55;7.97;;;;;;;4.26;100.00;102687.84;5001889;28;20109;-77
2023/01/23 09:44:45;;;;;;;14.13;6.60;;;;;;;4.43;100.00;102686.16;4997042;28;20125;-77
2023/01/23 09:47:20;;;;;;;16.58;7.53;;;;;;;4.52;100.00;102691.88;4997784;28;20038;-78
2023/01/23 09:49:59;;;;;;;17.50;8.70;;;;;;;4.56;100.00;102690.34;4987499;28;20041;-77
2023/01/23 09:52:29;;;;;;;22.58;9.68;;;;;;;4.62;100.00;102682.81;5004828;28;20033;-78
2023/01/23 09:55:03;;;;;;;19.33;8.68;;;;;;;4.70;100.00;102681.47;4994616;28;20045;-78
2023/01/23 09:57:41;;;;;;;17.80;8.32;;;;;;;4.82;99.67;102676.91;5000976;28;20761;-77
2023/01/23 10:00:19;;;;;;;17.20;8.43;;;;;;;4.86;98.91;102677.03;4998715;28;20668;-77
2023/01/23 10:02:45;;;;;;;18.08;9.07;;;;;;;4.78;98.69;102674.03;5002757;28;20039;-77
2023/01/23 10:05:17;;;;;;;16.17;8.43;;;;;;;4.86;99.23;102677.03;5003971;28;20050;-77
2023/01/23 10:07:55;;;;;;;17.27;9.00;;;;;;;4.95;99.57;102672.28;5001362;28;20549;-77
2023/01/23 10:10:50;;;;;;;18.52;8.50;;;;;;;4.96;98.42;102669.75;4995584;28;20034;-77
2023/01/23 10:13:32;;;;;;;15.30;7.53;;;;;;;4.89;98.01;102674.59;4986232;28;20525;-77
2023/01/23 10:16:13;;;;;;;17.45;8.55;;;;;;;4.88;98.32;102676.31;4999560;28;20069;-78
2023/01/23 10:19:06;;;;;;;16.05;7.43;;;;;;;4.82;97.41;102665.50;4999128;28;20042;-77
2023/01/23 10:21:31;;;;;;;;;;;;;;;4.76;98.48;102666.09;5001137;28;20048;-77
2023/01/23 10:24:25;;;;;;;21.83;9.82;;;;;;;4.79;98.12;102671.50;4999242;28;19917;-77
2023/01/23 10:26:54;;;;;;;17.67;7.38;;;;;;;4.80;98.16;102677.63;5002148;28;20034;-77
2023/01/23 10:29:31;;;;;;;20.52;9.90;;;;;;;4.84;98.40;102670.00;5002981;28;20092;-77
2023/01/23 10:32:00;;;;;;;20.33;9.90;;;;;;;4.86;97.57;102667.47;5004572;28;20046;-77
2023/01/23 10:34:36;;;;;;;19.30;9.25;;;;;;;4.90;97.96;102669.44;5001426;28;20043;-78
2023/01/23 10:37:26;;;;;;;21.50;7.82;;;;;;;4.86;96.97;102661.34;4997871;28;20093;-77
2023/01/23 10:40:01;;;;;;;19.27;8.48;;;;;;;4.93;97.90;102666.09;4995806;28;20042;-77
2023/01/23 10:42:27;;;;;;;23.13;10.43;;;;;;;4.96;97.33;102658.38;4998022;28;20030;-77
2023/01/23 10:44:52;;;;;;;20.70;9.73;;;;;;;4.86;97.80;102656.13;5003898;28;20037;-78
2023/01/23 10:47:47;;;;;;;22.55;9.50;;;;;;;4.78;97.46;102653.09;5032234;22;20050;-76
2023/01/23 10:50:12;;;;;;;26.13;11.52;;;;;;;4.82;98.04;102658.59;4991036;28;20521;-76
2023/01/23 10:52:40;;;;;;;20.50;9.07;;;;;;;4.75;97.80;102653.84;4993213;28;20081;-77
2023/01/23 10:55:27;;;;;;;25.05;10.07;;;;;;;4.66;98.37;102650.75;4992770;28;20121;-77
2023/01/23 10:58:02;;;;;;;20.33;10.73;;;;;;;4.73;99.01;102662.44;4992720;28;20034;-77
2023/01/23 11:00:45;;;;;;;21.83;10.10;;;;;;;4.70;98.90;102660.56;4992609;28;20034;-76
2023/01/23 11:03:27;;;;;;;24.70;11.18;;;;;;;4.59;98.64;102664.34;4990768;28;20042;-77
2023/01/23 11:06:01;;;;;;;31.20;12.13;;;;;;;4.36;100.00;102663.13;4991969;28;20497;-77
2023/01/23 11:08:35;;;;;;;32.03;12.98;;;;;;;4.20;100.00;102663.13;4992743;28;20036;-76
2023/01/23 11:11:13;;;;;;;28.80;12.63;;;;;;;4.20;100.00;102661.41;4992394;28;20042;-76
2023/01/23 11:13:38;;;;;;;27.42;11.07;;;;;;;4.15;100.00;102662.88;4989632;28;20524;-77
2023/01/23 11:16:05;;;;;;;25.85;11.45;;;;;;;4.09;100.00;102665.16;4991197;28;20070;-76
2023/01/23 11:18:45;;;;;;;25.95;11.52;;;;;;;4.08;100.00;102668.56;4992153;28;20042;-76
2023/01/23 11:21:31;;;;;;;24.45;10.35;;;;;;;4.06;100.00;102662.34;4985983;28;20692;-76
2023/01/23 11:24:17;;;;;;;26.08;11.60;;;;;;;4.07;100.00;102664.16;4989511;28;20035;-76
2023/01/23 11:26:43;;;;;;;30.17;11.85;;;;;;;4.06;100.00;102667.56;4988464;28;20046;-76
2023/01/23 11:29:23;;;;;;;29.75;13.20;;;;;;;4.05;100.00;102668.41;4991601;28;20034;-76
2023/01/23 11:32:12;;;;;;;30.23;11.35;;;;;;;4.15;100.00;102673.31;4988204;28;20037;-77